sensor_id;sensor_type;location;lat;lon;timestamp;P1;durP1;ratioP1;P2;durP2;ratioP2
286;SDS011;127;48.770;9.212;2023-05-07T00:00:51;6.97;;;3.87;;
286;SDS011;127;48.770;9.212;2023-05-07T00:03:21;4.60;;;3.20;;
286;SDS011;127;48.770;9.212;2023-05-07T00:05:51;3.73;;;3.20;;
286;SDS011;127;48.770;9.212;2023-05-07T00:08:30;4.63;;;3.43;;
286;SDS011;127;48.770;9.212;2023-05-07T00:11:02;15.50;;;3.40;;
286;SDS011;127;48.770;9.212;2023-05-07T00:13:36;9.57;;;3.53;;
286;SDS011;127;48.770;9.212;2023-05-07T00:16:12;4.90;;;3.37;;
286;SDS011;127;48.770;9.212;2023-05-07T00:18:54;5.27;;;3.00;;
286;SDS011;127;48.770;9.212;2023-05-07T00:21:33;8.90;;;3.63;;
286;SDS011;127;48.770;9.212;2023-05-07T00:24:18;4.17;;;3.50;;
286;SDS011;127;48.770;9.212;2023-05-07T00:27:14;4.80;;;2.97;;
286;SDS011;127;48.770;9.212;2023-05-07T00:30:10;4.90;;;3.63;;
286;SDS011;127;48.770;9.212;2023-05-07T00:33:18;4.83;;;3.20;;
286;SDS011;127;48.770;9.212;2023-05-07T00:35:52;4.10;;;3.70;;
286;SDS011;127;48.770;9.212;2023-05-07T00:38:22;5.20;;;3.13;;
286;SDS011;127;48.770;9.212;2023-05-07T00:40:53;7.60;;;3.90;;
286;SDS011;127;48.770;9.212;2023-05-07T00:43:30;4.90;;;3.50;;
286;SDS011;127;48.770;9.212;2023-05-07T00:45:59;3.67;;;2.60;;
286;SDS011;127;48.770;9.212;2023-05-07T00:48:30;9.00;;;3.50;;
286;SDS011;127;48.770;9.212;2023-05-07T00:51:00;3.97;;;3.20;;
286;SDS011;127;48.770;9.212;2023-05-07T00:53:30;6.93;;;4.50;;
286;SDS011;127;48.770;9.212;2023-05-07T00:56:01;4.47;;;3.57;;
286;SDS011;127;48.770;9.212;2023-05-07T00:58:36;6.70;;;3.47;;
286;SDS011;127;48.770;9.212;2023-05-07T01:01:07;5.60;;;3.93;;
286;SDS011;127;48.770;9.212;2023-05-07T01:03:47;5.03;;;4.00;;
286;SDS011;127;48.770;9.212;2023-05-07T01:06:17;5.97;;;3.87;;
286;SDS011;127;48.770;9.212;2023-05-07T01:08:53;6.90;;;4.00;;
286;SDS011;127;48.770;9.212;2023-05-07T01:11:25;6.50;;;4.50;;
286;SDS011;127;48.770;9.212;2023-05-07T01:13:54;4.30;;;3.60;;
286;SDS011;127;48.770;9.212;2023-05-07T01:16:26;5.47;;;3.87;;
286;SDS011;127;48.770;9.212;2023-05-07T01:19:02;6.40;;;4.23;;
286;SDS011;127;48.770;9.212;2023-05-07T01:21:37;7.00;;;3.80;;
286;SDS011;127;48.770;9.212;2023-05-07T01:24:19;6.83;;;4.20;;
286;SDS011;127;48.770;9.212;2023-05-07T01:27:08;6.33;;;4.30;;
286;SDS011;127;48.770;9.212;2023-05-07T01:29:37;5.80;;;4.27;;
286;SDS011;127;48.770;9.212;2023-05-07T01:32:15;10.10;;;6.10;;
286;SDS011;127;48.770;9.212;2023-05-07T01:34:55;8.50;;;6.37;;
286;SDS011;127;48.770;9.212;2023-05-07T01:37:28;13.70;;;5.80;;
286;SDS011;127;48.770;9.212;2023-05-07T01:40:09;13.33;;;5.30;;
286;SDS011;127;48.770;9.212;2023-05-07T01:42:41;7.87;;;4.67;;
286;SDS011;127;48.770;9.212;2023-05-07T01:45:16;6.23;;;4.20;;
286;SDS011;127;48.770;9.212;2023-05-07T01:47:51;7.63;;;3.87;;
286;SDS011;127;48.770;9.212;2023-05-07T01:50:30;7.23;;;3.87;;
286;SDS011;127;48.770;9.212;2023-05-07T01:53:02;7.10;;;3.50;;
286;SDS011;127;48.770;9.212;2023-05-07T01:55:39;5.63;;;3.97;;
286;SDS011;127;48.770;9.212;2023-05-07T01:58:19;5.27;;;3.27;;
286;SDS011;127;48.770;9.212;2023-05-07T02:00:58;6.70;;;4.37;;
286;SDS011;127;48.770;9.212;2023-05-07T02:03:30;5.97;;;5.10;;
286;SDS011;127;48.770;9.212;2023-05-07T02:06:05;8.03;;;4.33;;
286;SDS011;127;48.770;9.212;2023-05-07T02:08:34;9.47;;;5.77;;
286;SDS011;127;48.770;9.212;2023-05-07T02:11:10;11.93;;;6.97;;
286;SDS011;127;48.770;9.212;2023-05-07T02:13:45;13.67;;;7.40;;
286;SDS011;127;48.770;9.212;2023-05-07T02:16:13;13.53;;;7.30;;
286;SDS011;127;48.770;9.212;2023-05-07T02:19:06;10.17;;;7.03;;
286;SDS011;127;48.770;9.212;2023-05-07T02:21:43;10.17;;;6.90;;
286;SDS011;127;48.770;9.212;2023-05-07T02:24:14;12.60;;;7.30;;
286;SDS011;127;48.770;9.212;2023-05-07T02:26:58;10.43;;;6.70;;
286;SDS011;127;48.770;9.212;2023-05-07T02:29:29;9.20;;;6.23;;
286;SDS011;127;48.770;9.212;2023-05-07T02:32:00;15.03;;;7.80;;
286;SDS011;127;48.770;9.212;2023-05-07T02:34:40;11.63;;;6.90;;
286;SDS011;127;48.770;9.212;2023-05-07T02:37:11;11.10;;;6.83;;
286;SDS011;127;48.770;9.212;2023-05-07T02:40:01;11.70;;;7.70;;
286;SDS011;127;48.770;9.212;2023-05-07T02:42:34;12.90;;;8.47;;
286;SDS011;127;48.770;9.212;2023-05-07T02:45:03;10.30;;;6.50;;
286;SDS011;127;48.770;9.212;2023-05-07T02:47:36;9.80;;;7.33;;
286;SDS011;127;48.770;9.212;2023-05-07T02:50:13;10.90;;;7.00;;
286;SDS011;127;48.770;9.212;2023-05-07T02:52:42;11.43;;;6.33;;
286;SDS011;127;48.770;9.212;2023-05-07T02:55:12;10.03;;;6.50;;
286;SDS011;127;48.770;9.212;2023-05-07T02:57:50;13.80;;;6.20;;
286;SDS011;127;48.770;9.212;2023-05-07T03:00:33;7.50;;;5.27;;
286;SDS011;127;48.770;9.212;2023-05-07T03:03:05;6.30;;;4.43;;
286;SDS011;127;48.770;9.212;2023-05-07T03:05:47;6.97;;;4.17;;
286;SDS011;127;48.770;9.212;2023-05-07T03:10:35;7.50;;;4.70;;
286;SDS011;127;48.770;9.212;2023-05-07T03:12:05;10.53;;;5.63;;
286;SDS011;127;48.770;9.212;2023-05-07T03:14:52;16.40;;;6.40;;
286;SDS011;127;48.770;9.212;2023-05-07T03:17:23;6.70;;;5.00;;
286;SDS011;127;48.770;9.212;2023-05-07T03:20:07;6.13;;;4.10;;
286;SDS011;127;48.770;9.212;2023-05-07T03:22:38;5.87;;;3.53;;
286;SDS011;127;48.770;9.212;2023-05-07T03:25:08;18.53;;;3.70;;
286;SDS011;127;48.770;9.212;2023-05-07T03:27:51;6.23;;;4.00;;
286;SDS011;127;48.770;9.212;2023-05-07T03:30:27;5.23;;;3.63;;
286;SDS011;127;48.770;9.212;2023-05-07T03:33:25;7.87;;;3.77;;
286;SDS011;127;48.770;9.212;2023-05-07T03:36:11;8.00;;;5.03;;
286;SDS011;127;48.770;9.212;2023-05-07T03:38:50;5.03;;;4.10;;
286;SDS011;127;48.770;9.212;2023-05-07T03:41:23;5.90;;;3.90;;
286;SDS011;127;48.770;9.212;2023-05-07T03:43:52;5.73;;;4.27;;
286;SDS011;127;48.770;9.212;2023-05-07T03:46:30;6.10;;;3.93;;
286;SDS011;127;48.770;9.212;2023-05-07T03:49:25;5.17;;;4.07;;
286;SDS011;127;48.770;9.212;2023-05-07T03:52:04;6.00;;;4.47;;
286;SDS011;127;48.770;9.212;2023-05-07T03:56:01;6.17;;;4.10;;
286;SDS011;127;48.770;9.212;2023-05-07T03:58:04;7.23;;;4.27;;
286;SDS011;127;48.770;9.212;2023-05-07T04:00:51;7.37;;;4.80;;
286;SDS011;127;48.770;9.212;2023-05-07T04:03:33;7.13;;;4.50;;
286;SDS011;127;48.770;9.212;2023-05-07T04:06:17;7.87;;;5.50;;
286;SDS011;127;48.770;9.212;2023-05-07T04:08:54;6.10;;;4.80;;
286;SDS011;127;48.770;9.212;2023-05-07T04:11:34;8.70;;;5.67;;
286;SDS011;127;48.770;9.212;2023-05-07T04:14:29;7.77;;;5.80;;
286;SDS011;127;48.770;9.212;2023-05-07T04:17:00;8.40;;;5.37;;
286;SDS011;127;48.770;9.212;2023-05-07T04:19:35;7.27;;;5.20;;
286;SDS011;127;48.770;9.212;2023-05-07T04:22:04;7.17;;;5.03;;
286;SDS011;127;48.770;9.212;2023-05-07T04:24:54;7.83;;;5.50;;
286;SDS011;127;48.770;9.212;2023-05-07T04:27:25;8.07;;;5.70;;
286;SDS011;127;48.770;9.212;2023-05-07T04:29:54;9.43;;;6.33;;
286;SDS011;127;48.770;9.212;2023-05-07T04:32:23;10.23;;;5.77;;
286;SDS011;127;48.770;9.212;2023-05-07T04:34:57;7.53;;;5.30;;
286;SDS011;127;48.770;9.212;2023-05-07T04:37:26;6.40;;;5.00;;
286;SDS011;127;48.770;9.212;2023-05-07T04:40:03;7.93;;;4.93;;
286;SDS011;127;48.770;9.212;2023-05-07T04:42:32;8.53;;;5.27;;
286;SDS011;127;48.770;9.212;2023-05-07T04:45:08;17.43;;;5.80;;
286;SDS011;127;48.770;9.212;2023-05-07T04:47:40;10.73;;;5.50;;
286;SDS011;127;48.770;9.212;2023-05-07T04:50:12;10.93;;;6.20;;
286;SDS011;127;48.770;9.212;2023-05-07T04:52:42;6.37;;;5.03;;
286;SDS011;127;48.770;9.212;2023-05-07T04:55:28;11.07;;;5.70;;
286;SDS011;127;48.770;9.212;2023-05-07T04:57:58;8.40;;;6.30;;
286;SDS011;127;48.770;9.212;2023-05-07T05:00:57;8.13;;;5.43;;
286;SDS011;127;48.770;9.212;2023-05-07T05:03:31;12.13;;;5.40;;
286;SDS011;127;48.770;9.212;2023-05-07T05:06:07;6.10;;;5.40;;
286;SDS011;127;48.770;9.212;2023-05-07T05:08:37;8.80;;;5.70;;
286;SDS011;127;48.770;9.212;2023-05-07T05:11:07;10.20;;;5.80;;
286;SDS011;127;48.770;9.212;2023-05-07T05:13:40;14.03;;;6.13;;
286;SDS011;127;48.770;9.212;2023-05-07T05:16:22;12.10;;;6.30;;
286;SDS011;127;48.770;9.212;2023-05-07T05:19:09;9.63;;;6.07;;
286;SDS011;127;48.770;9.212;2023-05-07T05:21:49;9.33;;;5.53;;
286;SDS011;127;48.770;9.212;2023-05-07T05:24:18;7.17;;;5.03;;
286;SDS011;127;48.770;9.212;2023-05-07T05:27:06;9.07;;;5.43;;
286;SDS011;127;48.770;9.212;2023-05-07T05:29:43;6.43;;;4.97;;
286;SDS011;127;48.770;9.212;2023-05-07T05:32:14;10.00;;;6.40;;
286;SDS011;127;48.770;9.212;2023-05-07T05:34:47;7.87;;;5.77;;
286;SDS011;127;48.770;9.212;2023-05-07T05:37:25;9.00;;;4.87;;
286;SDS011;127;48.770;9.212;2023-05-07T05:39:58;11.60;;;5.80;;
286;SDS011;127;48.770;9.212;2023-05-07T05:42:31;6.40;;;4.77;;
286;SDS011;127;48.770;9.212;2023-05-07T05:45:07;8.60;;;4.37;;
286;SDS011;127;48.770;9.212;2023-05-07T05:47:46;6.37;;;5.00;;
286;SDS011;127;48.770;9.212;2023-05-07T05:53:49;9.23;;;5.10;;
286;SDS011;127;48.770;9.212;2023-05-07T05:56:28;11.20;;;5.97;;
286;SDS011;127;48.770;9.212;2023-05-07T05:58:59;7.23;;;4.20;;
286;SDS011;127;48.770;9.212;2023-05-07T06:01:32;7.30;;;4.47;;
286;SDS011;127;48.770;9.212;2023-05-07T06:04:04;11.40;;;6.70;;
286;SDS011;127;48.770;9.212;2023-05-07T06:06:40;11.93;;;5.83;;
286;SDS011;127;48.770;9.212;2023-05-07T06:09:21;12.53;;;6.90;;
286;SDS011;127;48.770;9.212;2023-05-07T06:11:52;10.32;;;6.18;;
286;SDS011;127;48.770;9.212;2023-05-07T06:14:53;11.93;;;6.97;;
286;SDS011;127;48.770;9.212;2023-05-07T06:17:22;11.10;;;6.27;;
286;SDS011;127;48.770;9.212;2023-05-07T06:19:55;9.57;;;5.90;;
286;SDS011;127;48.770;9.212;2023-05-07T06:22:35;19.20;;;6.50;;
286;SDS011;127;48.770;9.212;2023-05-07T06:25:10;6.17;;;4.80;;
286;SDS011;127;48.770;9.212;2023-05-07T06:27:48;10.90;;;5.10;;
286;SDS011;127;48.770;9.212;2023-05-07T06:30:18;6.50;;;4.97;;
286;SDS011;127;48.770;9.212;2023-05-07T06:33:04;12.27;;;6.30;;
286;SDS011;127;48.770;9.212;2023-05-07T06:35:35;9.23;;;5.70;;
286;SDS011;127;48.770;9.212;2023-05-07T06:38:19;23.33;;;6.27;;
286;SDS011;127;48.770;9.212;2023-05-07T06:40:51;9.60;;;5.93;;
286;SDS011;127;48.770;9.212;2023-05-07T06:43:23;11.70;;;6.77;;
286;SDS011;127;48.770;9.212;2023-05-07T06:45:55;11.10;;;5.80;;
286;SDS011;127;48.770;9.212;2023-05-07T06:48:24;9.17;;;6.50;;
286;SDS011;127;48.770;9.212;2023-05-07T06:50:53;10.03;;;7.10;;
286;SDS011;127;48.770;9.212;2023-05-07T06:53:22;7.53;;;6.30;;
286;SDS011;127;48.770;9.212;2023-05-07T06:59:08;10.63;;;7.03;;
286;SDS011;127;48.770;9.212;2023-05-07T07:01:40;15.27;;;6.70;;
286;SDS011;127;48.770;9.212;2023-05-07T07:04:08;14.60;;;7.30;;
286;SDS011;127;48.770;9.212;2023-05-07T07:06:37;8.57;;;5.63;;
286;SDS011;127;48.770;9.212;2023-05-07T07:09:17;9.30;;;6.17;;
286;SDS011;127;48.770;9.212;2023-05-07T07:11:57;12.07;;;6.50;;
286;SDS011;127;48.770;9.212;2023-05-07T07:14:29;12.90;;;6.20;;
286;SDS011;127;48.770;9.212;2023-05-07T07:16:59;7.13;;;5.17;;
286;SDS011;127;48.770;9.212;2023-05-07T07:19:30;11.47;;;4.50;;
286;SDS011;127;48.770;9.212;2023-05-07T07:22:03;7.87;;;4.87;;
286;SDS011;127;48.770;9.212;2023-05-07T07:24:33;9.40;;;5.30;;
286;SDS011;127;48.770;9.212;2023-05-07T07:27:19;13.40;;;4.60;;
286;SDS011;127;48.770;9.212;2023-05-07T07:29:53;7.17;;;5.03;;
286;SDS011;127;48.770;9.212;2023-05-07T07:32:23;7.93;;;4.60;;
286;SDS011;127;48.770;9.212;2023-05-07T07:35:00;6.80;;;5.20;;
286;SDS011;127;48.770;9.212;2023-05-07T07:37:30;8.60;;;4.83;;
286;SDS011;127;48.770;9.212;2023-05-07T07:39:59;5.50;;;4.00;;
286;SDS011;127;48.770;9.212;2023-05-07T07:42:31;9.93;;;5.47;;
286;SDS011;127;48.770;9.212;2023-05-07T07:45:06;7.80;;;5.27;;
286;SDS011;127;48.770;9.212;2023-05-07T07:47:37;11.63;;;4.67;;
286;SDS011;127;48.770;9.212;2023-05-07T07:50:06;7.50;;;4.30;;
286;SDS011;127;48.770;9.212;2023-05-07T07:52:38;8.63;;;4.13;;
286;SDS011;127;48.770;9.212;2023-05-07T07:55:10;6.00;;;4.17;;
286;SDS011;127;48.770;9.212;2023-05-07T07:57:40;5.13;;;3.70;;
286;SDS011;127;48.770;9.212;2023-05-07T08:00:12;10.37;;;4.20;;
286;SDS011;127;48.770;9.212;2023-05-07T08:02:45;10.83;;;4.43;;
286;SDS011;127;48.770;9.212;2023-05-07T08:05:16;5.23;;;4.07;;
286;SDS011;127;48.770;9.212;2023-05-07T08:07:46;9.00;;;4.10;;
286;SDS011;127;48.770;9.212;2023-05-07T08:10:19;8.27;;;3.63;;
286;SDS011;127;48.770;9.212;2023-05-07T08:12:52;8.80;;;3.90;;
286;SDS011;127;48.770;9.212;2023-05-07T08:15:23;4.27;;;3.63;;
286;SDS011;127;48.770;9.212;2023-05-07T08:17:54;8.00;;;5.20;;
286;SDS011;127;48.770;9.212;2023-05-07T08:20:25;5.57;;;3.67;;
286;SDS011;127;48.770;9.212;2023-05-07T08:22:54;10.40;;;4.47;;
286;SDS011;127;48.770;9.212;2023-05-07T08:25:29;5.90;;;3.60;;
286;SDS011;127;48.770;9.212;2023-05-07T08:27:58;7.03;;;3.87;;
286;SDS011;127;48.770;9.212;2023-05-07T08:30:34;6.20;;;4.10;;
286;SDS011;127;48.770;9.212;2023-05-07T08:33:05;5.10;;;4.10;;
286;SDS011;127;48.770;9.212;2023-05-07T08:35:35;6.80;;;4.33;;
286;SDS011;127;48.770;9.212;2023-05-07T08:38:09;7.13;;;3.53;;
286;SDS011;127;48.770;9.212;2023-05-07T08:40:53;5.90;;;3.87;;
286;SDS011;127;48.770;9.212;2023-05-07T08:43:22;5.40;;;3.60;;
286;SDS011;127;48.770;9.212;2023-05-07T08:45:57;3.70;;;3.20;;
286;SDS011;127;48.770;9.212;2023-05-07T08:48:32;6.83;;;4.27;;
286;SDS011;127;48.770;9.212;2023-05-07T08:51:03;5.97;;;3.80;;
286;SDS011;127;48.770;9.212;2023-05-07T08:53:37;4.90;;;3.20;;
286;SDS011;127;48.770;9.212;2023-05-07T08:56:09;6.10;;;4.60;;
286;SDS011;127;48.770;9.212;2023-05-07T08:58:41;6.87;;;4.03;;
286;SDS011;127;48.770;9.212;2023-05-07T09:01:14;10.43;;;4.40;;
286;SDS011;127;48.770;9.212;2023-05-07T09:03:46;4.97;;;3.87;;
286;SDS011;127;48.770;9.212;2023-05-07T09:06:15;7.53;;;3.50;;
286;SDS011;127;48.770;9.212;2023-05-07T09:08:52;4.57;;;3.43;;
286;SDS011;127;48.770;9.212;2023-05-07T09:11:26;3.30;;;2.70;;
286;SDS011;127;48.770;9.212;2023-05-07T09:13:59;9.30;;;3.80;;
286;SDS011;127;48.770;9.212;2023-05-07T09:16:31;7.07;;;3.50;;
286;SDS011;127;48.770;9.212;2023-05-07T09:19:02;8.57;;;3.30;;
286;SDS011;127;48.770;9.212;2023-05-07T09:21:34;4.90;;;3.37;;
286;SDS011;127;48.770;9.212;2023-05-07T09:24:07;6.20;;;3.60;;
286;SDS011;127;48.770;9.212;2023-05-07T09:26:53;6.10;;;3.13;;
286;SDS011;127;48.770;9.212;2023-05-07T09:29:27;6.30;;;3.90;;
286;SDS011;127;48.770;9.212;2023-05-07T09:32:10;4.20;;;2.83;;
286;SDS011;127;48.770;9.212;2023-05-07T09:34:43;5.03;;;2.80;;
286;SDS011;127;48.770;9.212;2023-05-07T09:37:12;2.87;;;2.67;;
286;SDS011;127;48.770;9.212;2023-05-07T09:39:42;5.03;;;3.47;;
286;SDS011;127;48.770;9.212;2023-05-07T09:42:11;4.63;;;2.87;;
286;SDS011;127;48.770;9.212;2023-05-07T09:44:41;8.73;;;3.03;;
286;SDS011;127;48.770;9.212;2023-05-07T09:47:14;5.27;;;2.90;;
286;SDS011;127;48.770;9.212;2023-05-07T09:49:48;7.20;;;3.23;;
286;SDS011;127;48.770;9.212;2023-05-07T09:52:19;5.10;;;3.07;;
286;SDS011;127;48.770;9.212;2023-05-07T09:54:48;5.70;;;3.50;;
286;SDS011;127;48.770;9.212;2023-05-07T09:57:21;4.13;;;2.90;;
286;SDS011;127;48.770;9.212;2023-05-07T09:59:59;5.33;;;2.70;;
286;SDS011;127;48.770;9.212;2023-05-07T10:02:36;3.70;;;3.50;;
286;SDS011;127;48.770;9.212;2023-05-07T10:05:11;8.27;;;3.20;;
286;SDS011;127;48.770;9.212;2023-05-07T10:07:41;5.27;;;3.90;;
286;SDS011;127;48.770;9.212;2023-05-07T10:10:11;7.17;;;3.37;;
286;SDS011;127;48.770;9.212;2023-05-07T10:12:40;5.90;;;3.00;;
286;SDS011;127;48.770;9.212;2023-05-07T10:15:14;4.60;;;3.10;;
286;SDS011;127;48.770;9.212;2023-05-07T10:17:48;3.03;;;2.70;;
286;SDS011;127;48.770;9.212;2023-05-07T10:20:19;4.13;;;2.90;;
286;SDS011;127;48.770;9.212;2023-05-07T10:22:48;4.93;;;3.20;;
286;SDS011;127;48.770;9.212;2023-05-07T10:25:23;6.30;;;2.97;;
286;SDS011;127;48.770;9.212;2023-05-07T10:27:57;4.97;;;3.03;;
286;SDS011;127;48.770;9.212;2023-05-07T10:30:35;3.53;;;2.70;;
286;SDS011;127;48.770;9.212;2023-05-07T10:33:22;5.60;;;3.20;;
286;SDS011;127;48.770;9.212;2023-05-07T10:35:55;2.80;;;2.60;;
286;SDS011;127;48.770;9.212;2023-05-07T10:38:29;4.80;;;3.10;;
286;SDS011;127;48.770;9.212;2023-05-07T10:40:58;3.50;;;2.33;;
286;SDS011;127;48.770;9.212;2023-05-07T10:43:38;3.37;;;2.90;;
286;SDS011;127;48.770;9.212;2023-05-07T10:46:14;4.40;;;3.47;;
286;SDS011;127;48.770;9.212;2023-05-07T10:51:41;3.67;;;2.57;;
286;SDS011;127;48.770;9.212;2023-05-07T10:54:18;4.07;;;2.63;;
286;SDS011;127;48.770;9.212;2023-05-07T10:56:51;3.37;;;2.90;;
286;SDS011;127;48.770;9.212;2023-05-07T10:59:34;3.50;;;2.40;;
286;SDS011;127;48.770;9.212;2023-05-07T11:02:06;6.93;;;2.70;;
286;SDS011;127;48.770;9.212;2023-05-07T11:04:39;3.70;;;2.90;;
286;SDS011;127;48.770;9.212;2023-05-07T11:10:04;4.40;;;3.13;;
286;SDS011;127;48.770;9.212;2023-05-07T11:12:46;4.93;;;2.80;;
286;SDS011;127;48.770;9.212;2023-05-07T11:15:35;3.73;;;3.20;;
286;SDS011;127;48.770;9.212;2023-05-07T11:18:07;8.33;;;3.10;;
286;SDS011;127;48.770;9.212;2023-05-07T11:20:51;4.50;;;2.70;;
286;SDS011;127;48.770;9.212;2023-05-07T11:26:20;2.70;;;2.40;;
286;SDS011;127;48.770;9.212;2023-05-07T11:28:50;6.90;;;2.80;;
286;SDS011;127;48.770;9.212;2023-05-07T11:31:20;4.90;;;2.90;;
286;SDS011;127;48.770;9.212;2023-05-07T11:33:51;2.47;;;2.30;;
286;SDS011;127;48.770;9.212;2023-05-07T11:36:23;5.60;;;2.40;;
286;SDS011;127;48.770;9.212;2023-05-07T11:38:52;3.47;;;2.67;;
286;SDS011;127;48.770;9.212;2023-05-07T11:41:21;3.63;;;2.80;;
286;SDS011;127;48.770;9.212;2023-05-07T11:43:56;5.17;;;3.20;;
286;SDS011;127;48.770;9.212;2023-05-07T11:46:28;6.40;;;3.10;;
286;SDS011;127;48.770;9.212;2023-05-07T11:48:56;7.70;;;2.93;;
286;SDS011;127;48.770;9.212;2023-05-07T11:51:28;5.17;;;3.37;;
286;SDS011;127;48.770;9.212;2023-05-07T11:53:58;5.60;;;2.93;;
286;SDS011;127;48.770;9.212;2023-05-07T11:56:26;4.30;;;2.80;;
286;SDS011;127;48.770;9.212;2023-05-07T11:58:55;7.00;;;2.93;;
286;SDS011;127;48.770;9.212;2023-05-07T12:01:24;3.07;;;2.83;;
286;SDS011;127;48.770;9.212;2023-05-07T12:03:52;4.43;;;2.63;;
286;SDS011;127;48.770;9.212;2023-05-07T12:06:21;4.83;;;3.10;;
286;SDS011;127;48.770;9.212;2023-05-07T12:08:53;3.63;;;2.63;;
286;SDS011;127;48.770;9.212;2023-05-07T12:11:23;5.00;;;2.87;;
286;SDS011;127;48.770;9.212;2023-05-07T12:13:53;2.77;;;2.50;;
286;SDS011;127;48.770;9.212;2023-05-07T12:16:22;5.53;;;3.30;;
286;SDS011;127;48.770;9.212;2023-05-07T12:18:51;10.97;;;3.30;;
286;SDS011;127;48.770;9.212;2023-05-07T12:21:21;5.87;;;3.03;;
286;SDS011;127;48.770;9.212;2023-05-07T12:23:53;6.80;;;3.47;;
286;SDS011;127;48.770;9.212;2023-05-07T12:26:30;9.13;;;4.70;;
286;SDS011;127;48.770;9.212;2023-05-07T12:28:59;17.83;;;5.47;;
286;SDS011;127;48.770;9.212;2023-05-07T12:31:28;13.23;;;5.70;;
286;SDS011;127;48.770;9.212;2023-05-07T12:33:57;21.93;;;5.37;;
286;SDS011;127;48.770;9.212;2023-05-07T12:36:26;12.37;;;5.40;;
286;SDS011;127;48.770;9.212;2023-05-07T12:39:06;9.53;;;4.57;;
286;SDS011;127;48.770;9.212;2023-05-07T12:41:36;7.97;;;4.90;;
286;SDS011;127;48.770;9.212;2023-05-07T12:44:23;7.40;;;4.00;;
286;SDS011;127;48.770;9.212;2023-05-07T12:46:55;18.90;;;5.57;;
286;SDS011;127;48.770;9.212;2023-05-07T12:49:27;10.60;;;5.37;;
286;SDS011;127;48.770;9.212;2023-05-07T12:51:56;21.13;;;6.40;;
286;SDS011;127;48.770;9.212;2023-05-07T12:54:32;7.13;;;3.10;;
286;SDS011;127;48.770;9.212;2023-05-07T12:57:12;9.73;;;3.47;;
286;SDS011;127;48.770;9.212;2023-05-07T13:00:04;10.67;;;3.50;;
286;SDS011;127;48.770;9.212;2023-05-07T13:03:02;10.10;;;2.77;;
286;SDS011;127;48.770;9.212;2023-05-07T13:05:33;10.80;;;3.27;;
286;SDS011;127;48.770;9.212;2023-05-07T13:08:04;3.57;;;2.57;;
286;SDS011;127;48.770;9.212;2023-05-07T13:10:42;12.57;;;3.53;;
286;SDS011;127;48.770;9.212;2023-05-07T13:13:21;15.13;;;4.57;;
286;SDS011;127;48.770;9.212;2023-05-07T13:15:53;38.30;;;5.70;;
286;SDS011;127;48.770;9.212;2023-05-07T13:18:23;22.67;;;5.27;;
286;SDS011;127;48.770;9.212;2023-05-07T13:20:52;20.33;;;5.97;;
286;SDS011;127;48.770;9.212;2023-05-07T13:23:21;33.97;;;7.47;;
286;SDS011;127;48.770;9.212;2023-05-07T13:25:55;19.13;;;7.00;;
286;SDS011;127;48.770;9.212;2023-05-07T13:28:24;16.23;;;6.73;;
286;SDS011;127;48.770;9.212;2023-05-07T13:30:54;22.03;;;6.90;;
286;SDS011;127;48.770;9.212;2023-05-07T13:33:25;22.97;;;6.27;;
286;SDS011;127;48.770;9.212;2023-05-07T13:35:54;27.57;;;7.13;;
286;SDS011;127;48.770;9.212;2023-05-07T13:44:25;12.90;;;5.57;;
286;SDS011;127;48.770;9.212;2023-05-07T13:46:54;15.13;;;5.73;;
286;SDS011;127;48.770;9.212;2023-05-07T13:49:23;11.30;;;5.13;;
286;SDS011;127;48.770;9.212;2023-05-07T13:51:52;8.80;;;4.90;;
286;SDS011;127;48.770;9.212;2023-05-07T13:54:20;10.60;;;3.77;;
286;SDS011;127;48.770;9.212;2023-05-07T13:56:49;6.03;;;3.20;;
286;SDS011;127;48.770;9.212;2023-05-07T13:59:20;11.37;;;4.73;;
286;SDS011;127;48.770;9.212;2023-05-07T14:01:49;9.00;;;3.70;;
286;SDS011;127;48.770;9.212;2023-05-07T14:04:18;9.50;;;4.00;;
286;SDS011;127;48.770;9.212;2023-05-07T14:06:47;11.77;;;4.10;;
286;SDS011;127;48.770;9.212;2023-05-07T14:09:15;9.60;;;4.67;;
286;SDS011;127;48.770;9.212;2023-05-07T14:12:01;11.63;;;4.97;;
286;SDS011;127;48.770;9.212;2023-05-07T14:14:36;9.77;;;5.53;;
286;SDS011;127;48.770;9.212;2023-05-07T14:17:11;7.80;;;5.13;;
286;SDS011;127;48.770;9.212;2023-05-07T14:19:45;9.43;;;6.07;;
286;SDS011;127;48.770;9.212;2023-05-07T14:22:15;11.80;;;5.50;;
286;SDS011;127;48.770;9.212;2023-05-07T14:24:44;11.10;;;4.83;;
286;SDS011;127;48.770;9.212;2023-05-07T14:27:13;6.83;;;3.80;;
286;SDS011;127;48.770;9.212;2023-05-07T14:29:45;9.70;;;5.23;;
286;SDS011;127;48.770;9.212;2023-05-07T14:32:21;12.53;;;4.70;;
286;SDS011;127;48.770;9.212;2023-05-07T14:34:54;4.90;;;4.07;;
286;SDS011;127;48.770;9.212;2023-05-07T14:37:35;6.53;;;4.07;;
286;SDS011;127;48.770;9.212;2023-05-07T14:40:07;5.60;;;4.40;;
286;SDS011;127;48.770;9.212;2023-05-07T14:42:39;6.80;;;4.10;;
286;SDS011;127;48.770;9.212;2023-05-07T14:45:13;5.03;;;3.60;;
286;SDS011;127;48.770;9.212;2023-05-07T14:47:50;6.40;;;3.50;;
286;SDS011;127;48.770;9.212;2023-05-07T14:50:20;10.03;;;5.00;;
286;SDS011;127;48.770;9.212;2023-05-07T14:52:49;10.33;;;3.97;;
286;SDS011;127;48.770;9.212;2023-05-07T14:55:18;5.30;;;3.87;;
286;SDS011;127;48.770;9.212;2023-05-07T14:57:50;6.73;;;3.90;;
286;SDS011;127;48.770;9.212;2023-05-07T15:00:27;7.23;;;4.00;;
286;SDS011;127;48.770;9.212;2023-05-07T15:03:05;13.43;;;4.63;;
286;SDS011;127;48.770;9.212;2023-05-07T15:05:37;6.00;;;3.57;;
286;SDS011;127;48.770;9.212;2023-05-07T15:08:09;4.00;;;3.90;;
286;SDS011;127;48.770;9.212;2023-05-07T15:10:38;5.30;;;4.23;;
286;SDS011;127;48.770;9.212;2023-05-07T15:13:14;6.23;;;3.80;;
286;SDS011;127;48.770;9.212;2023-05-07T15:15:50;6.13;;;5.17;;
286;SDS011;127;48.770;9.212;2023-05-07T15:18:23;14.07;;;4.80;;
286;SDS011;127;48.770;9.212;2023-05-07T15:20:59;10.50;;;5.03;;
286;SDS011;127;48.770;9.212;2023-05-07T15:23:50;8.23;;;4.47;;
286;SDS011;127;48.770;9.212;2023-05-07T15:26:19;6.67;;;3.70;;
286;SDS011;127;48.770;9.212;2023-05-07T15:29:10;7.73;;;4.87;;
286;SDS011;127;48.770;9.212;2023-05-07T15:31:53;7.70;;;5.37;;
286;SDS011;127;48.770;9.212;2023-05-07T15:34:22;11.43;;;5.17;;
286;SDS011;127;48.770;9.212;2023-05-07T15:36:52;8.70;;;4.87;;
286;SDS011;127;48.770;9.212;2023-05-07T15:39:23;7.73;;;5.43;;
286;SDS011;127;48.770;9.212;2023-05-07T15:41:52;7.23;;;5.53;;
286;SDS011;127;48.770;9.212;2023-05-07T15:44:28;10.00;;;6.60;;
286;SDS011;127;48.770;9.212;2023-05-07T15:47:03;9.00;;;5.60;;
286;SDS011;127;48.770;9.212;2023-05-07T15:49:33;8.17;;;6.13;;
286;SDS011;127;48.770;9.212;2023-05-07T15:52:02;12.20;;;7.20;;
286;SDS011;127;48.770;9.212;2023-05-07T15:54:35;9.80;;;6.00;;
286;SDS011;127;48.770;9.212;2023-05-07T15:57:06;17.53;;;7.50;;
286;SDS011;127;48.770;9.212;2023-05-07T16:00:22;14.00;;;7.10;;
286;SDS011;127;48.770;9.212;2023-05-07T16:02:57;11.40;;;7.20;;
286;SDS011;127;48.770;9.212;2023-05-07T16:05:32;16.30;;;6.93;;
286;SDS011;127;48.770;9.212;2023-05-07T16:08:04;10.53;;;6.90;;
286;SDS011;127;48.770;9.212;2023-05-07T16:10:35;10.80;;;6.70;;
286;SDS011;127;48.770;9.212;2023-05-07T16:13:09;11.37;;;7.70;;
286;SDS011;127;48.770;9.212;2023-05-07T16:15:43;11.53;;;6.20;;
286;SDS011;127;48.770;9.212;2023-05-07T16:18:17;14.07;;;7.10;;
286;SDS011;127;48.770;9.212;2023-05-07T16:20:57;15.27;;;7.73;;
286;SDS011;127;48.770;9.212;2023-05-07T16:23:29;12.33;;;7.30;;
286;SDS011;127;48.770;9.212;2023-05-07T16:26:01;15.10;;;7.50;;
286;SDS011;127;48.770;9.212;2023-05-07T16:28:30;11.63;;;7.50;;
286;SDS011;127;48.770;9.212;2023-05-07T16:31:07;9.80;;;6.90;;
286;SDS011;127;48.770;9.212;2023-05-07T16:41:56;12.43;;;8.33;;
286;SDS011;127;48.770;9.212;2023-05-07T16:47:28;15.30;;;7.63;;
286;SDS011;127;48.770;9.212;2023-05-07T16:49:57;13.30;;;7.97;;
286;SDS011;127;48.770;9.212;2023-05-07T16:52:32;13.63;;;8.73;;
286;SDS011;127;48.770;9.212;2023-05-07T16:55:02;18.53;;;9.00;;
286;SDS011;127;48.770;9.212;2023-05-07T16:57:37;15.30;;;9.30;;
286;SDS011;127;48.770;9.212;2023-05-07T17:00:10;13.43;;;8.33;;